Time,TemperatureF,DewpointF,PressureIn,WindDirection,WindDirectionDegrees,WindSpeedMPH,WindSpeedGustMPH,Humidity,HourlyPrecipIn,Conditions,Clouds,dailyrainin,SoftwareType,DateUTC
2013-09-23 00:01:00,59.5,57.6,29.90,WNW,295,0.0,0.0,93,0.00,,,0.00,meteobridge,2013-09-23 04:01:00,
2013-09-23 00:03:00,59.5,57.6,29.90,WNW,294,0.0,0.0,93,0.00,,,0.00,meteobridge,2013-09-23 04:03:00,
2013-09-23 00:04:00,59.5,57.6,29.90,WNW,295,0.0,0.0,93,0.00,,,0.00,meteobridge,2013-09-23 04:04:00,
2013-09-23 00:07:00,59.5,57.6,29.90,WNW,294,0.0,0.0,93,0.00,,,0.00,meteobridge,2013-09-23 04:07:00,
2013-09-23 00:12:00,59.4,57.4,29.90,WNW,294,0.0,0.0,93,0.00,,,0.00,meteobridge,2013-09-23 04:12:00,
2013-09-23 00:17:00,59.4,57.6,29.90,WNW,294,0.0,0.0,94,0.00,,,0.00,meteobridge,2013-09-23 04:17:00,
2013-09-23 00:22:00,59.4,57.6,29.90,WNW,294,0.0,0.0,94,0.00,,,0.00,meteobridge,2013-09-23 04:22:00,
2013-09-23 00:28:00,59.4,57.6,29.90,WNW,294,0.0,0.0,94,0.00,,,0.00,meteobridge,2013-09-23 04:28:00,
2013-09-23 00:33:00,59.2,57.4,29.90,WNW,294,0.0,0.0,94,0.00,,,0.00,meteobridge,2013-09-23 04:33:00,
2013-09-23 00:38:00,59.2,57.4,29.90,WNW,295,0.0,0.0,94,0.00,,,0.00,meteobridge,2013-09-23 04:38:00,
2013-09-23 00:43:00,59.0,57.2,29.91,WNW,293,0.0,0.0,94,0.00,,,0.00,meteobridge,2013-09-23 04:43:00,
2013-09-23 00:48:00,58.8,57.0,29.91,WNW,294,0.0,0.0,94,0.00,,,0.00,meteobridge,2013-09-23 04:48:00,
2013-09-23 00:53:00,58.8,57.0,29.91,WNW,294,0.0,0.0,94,0.00,,,0.00,meteobridge,2013-09-23 04:53:00,
2013-09-23 00:58:00,58.6,56.8,29.91,WNW,294,0.0,0.0,94,0.00,,,0.00,meteobridge,2013-09-23 04:58:00,
2013-09-23 01:03:00,58.6,56.8,29.91,WNW,294,0.0,0.0,94,0.00,,,0.00,meteobridge,2013-09-23 05:03:00,
2013-09-23 01:08:00,58.5,56.7,29.91,WNW,294,0.0,0.0,94,0.00,,,0.00,meteobridge,2013-09-23 05:08:00,
2013-09-23 01:13:00,58.5,56.7,29.91,WNW,295,0.0,0.0,94,0.00,,,0.00,meteobridge,2013-09-23 05:13:00,
2013-09-23 01:18:00,58.3,56.5,29.91,WNW,294,0.0,0.0,94,0.00,,,0.00,meteobridge,2013-09-23 05:18:00,
2013-09-23 01:23:00,58.3,56.5,29.92,WNW,294,0.0,0.0,94,0.00,,,0.00,meteobridge,2013-09-23 05:23:00,
2013-09-23 01:28:00,58.3,56.5,29.92,WNW,294,0.0,0.0,94,0.00,,,0.00,meteobridge,2013-09-23 05:28:00,
2013-09-23 01:34:00,58.1,56.3,29.92,WNW,294,0.0,0.0,94,0.00,,,0.00,meteobridge,2013-09-23 05:34:00,
2013-09-23 01:39:00,58.1,56.3,29.92,WNW,294,0.0,0.0,94,0.00,,,0.00,meteobridge,2013-09-23 05:39:00,
2013-09-23 01:44:00,57.9,56.1,29.92,WNW,294,0.0,0.0,94,0.00,,,0.00,meteobridge,2013-09-23 05:44:00,
2013-09-23 01:49:00,57.9,56.1,29.92,WNW,294,0.0,0.0,94,0.00,,,0.00,meteobridge,2013-09-23 05:49:00,
2013-09-23 01:55:00,57.9,56.5,29.93,WNW,294,0.0,0.0,95,0.00,,,0.00,meteobridge,2013-09-23 05:55:00,
2013-09-23 02:00:00,57.9,56.5,29.93,WNW,294,0.0,0.0,95,0.00,,,0.00,meteobridge,2013-09-23 06:00:00,
2013-09-23 02:05:00,57.9,56.5,29.93,WNW,294,0.0,0.0,95,0.00,,,0.00,meteobridge,2013-09-23 06:05:00,
2013-09-23 02:10:00,57.9,56.5,29.93,WNW,294,0.0,0.0,95,0.00,,,0.00,meteobridge,2013-09-23 06:10:00,
2013-09-23 02:15:00,58.3,56.8,29.93,WNW,294,0.0,0.0,95,0.00,,,0.00,meteobridge,2013-09-23 06:15:00,
2013-09-23 02:20:00,58.3,56.8,29.93,WNW,294,0.0,0.0,95,0.00,,,0.00,meteobridge,2013-09-23 06:20:00,
2013-09-23 02:25:00,58.3,56.8,29.93,WNW,295,0.0,0.0,95,0.00,,,0.00,meteobridge,2013-09-23 06:25:00,
2013-09-23 02:30:00,58.5,57.0,29.93,WNW,294,0.0,0.0,95,0.00,,,0.00,meteobridge,2013-09-23 06:30:00,
2013-09-23 02:35:00,58.5,57.0,29.93,WNW,294,0.0,0.0,95,0.00,,,0.00,meteobridge,2013-09-23 06:35:00,
2013-09-23 02:40:00,58.6,57.2,29.93,WNW,294,0.0,0.0,95,0.00,,,0.00,meteobridge,2013-09-23 06:40:00,
2013-09-23 02:45:00,58.6,57.2,29.93,WNW,294,0.0,0.0,95,0.00,,,0.00,meteobridge,2013-09-23 06:45:00,
2013-09-23 02:51:00,58.8,57.4,29.93,WNW,294,0.0,0.0,95,0.00,,,0.00,meteobridge,2013-09-23 06:51:00,
2013-09-23 02:56:00,58.8,57.4,29.93,WNW,294,0.0,0.0,95,0.00,,,0.00,meteobridge,2013-09-23 06:56:00,
2013-09-23 03:01:00,58.6,56.8,29.93,WNW,294,0.0,0.0,94,0.00,,,0.00,meteobridge,2013-09-23 07:01:00,
2013-09-23 03:07:00,58.6,56.8,29.93,WNW,295,0.0,0.0,94,0.00,,,0.00,meteobridge,2013-09-23 07:07:00,
2013-09-23 03:12:00,58.6,56.8,29.94,WNW,294,0.0,0.0,94,0.00,,,0.00,meteobridge,2013-09-23 07:12:00,
2013-09-23 03:17:00,58.8,56.8,29.94,WNW,291,0.0,0.0,93,0.00,,,0.00,meteobridge,2013-09-23 07:17:00,
2013-09-23 03:22:00,58.8,56.5,29.94,WSW,257,0.0,0.0,92,0.00,,,0.00,meteobridge,2013-09-23 07:22:00,
2013-09-23 03:28:00,59.2,56.5,29.94,WSW,257,0.0,0.0,91,0.00,,,0.00,meteobridge,2013-09-23 07:28:00,
2013-09-23 03:33:00,59.2,56.5,29.94,WSW,257,0.0,0.0,91,0.00,,,0.00,meteobridge,2013-09-23 07:33:00,
2013-09-23 03:38:00,59.2,56.5,29.94,WSW,257,0.0,0.0,91,0.00,,,0.00,meteobridge,2013-09-23 07:38:00,
2013-09-23 03:43:00,59.2,56.5,29.94,WSW,257,0.0,0.0,91,0.00,,,0.00,meteobridge,2013-09-23 07:43:00,
2013-09-23 03:48:00,58.8,55.9,29.95,WSW,257,0.0,0.0,90,0.00,,,0.00,meteobridge,2013-09-23 07:48:00,
2013-09-23 03:53:00,58.8,55.9,29.95,WSW,257,0.0,0.0,90,0.00,,,0.00,meteobridge,2013-09-23 07:53:00,
2013-09-23 03:58:00,58.6,55.4,29.95,WSW,257,0.0,0.0,89,0.00,,,0.00,meteobridge,2013-09-23 07:58:00,
2013-09-23 04:03:00,58.6,55.4,29.95,WSW,257,0.0,0.0,89,0.00,,,0.00,meteobridge,2013-09-23 08:03:00,
2013-09-23 04:08:00,58.5,55.2,29.95,WSW,257,0.0,0.0,89,0.00,,,0.00,meteobridge,2013-09-23 08:08:00,
2013-09-23 04:13:00,58.3,54.7,29.95,WSW,257,0.0,0.0,88,0.00,,,0.00,meteobridge,2013-09-23 08:13:00,
2013-09-23 04:19:00,58.3,55.0,29.95,WSW,256,0.0,0.0,89,0.00,,,0.00,meteobridge,2013-09-23 08:19:00,
2013-09-23 04:24:00,58.3,55.0,29.95,WSW,255,0.0,0.0,89,0.00,,,0.00,meteobridge,2013-09-23 08:24:00,
2013-09-23 04:29:00,57.9,54.7,29.95,WSW,256,0.0,0.0,89,0.00,,,0.00,meteobridge,2013-09-23 08:29:00,
2013-09-23 04:34:00,57.9,54.3,29.96,WSW,256,0.0,0.0,88,0.00,,,0.00,meteobridge,2013-09-23 08:34:00,
2013-09-23 04:39:00,57.7,54.1,29.95,WSW,256,0.0,0.0,88,0.00,,,0.00,meteobridge,2013-09-23 08:39:00,
2013-09-23 04:44:00,57.6,54.3,29.96,WSW,256,0.0,0.0,89,0.00,,,0.00,meteobridge,2013-09-23 08:44:00,
2013-09-23 04:49:00,57.4,54.1,29.95,WSW,255,0.0,0.0,89,0.00,,,0.00,meteobridge,2013-09-23 08:49:00,
2013-09-23 04:55:00,57.2,54.0,29.95,WSW,256,0.0,0.0,89,0.00,,,0.00,meteobridge,2013-09-23 08:55:00,
2013-09-23 05:00:00,57.0,53.8,29.96,WSW,256,0.0,0.0,89,0.00,,,0.00,meteobridge,2013-09-23 09:00:00,
2013-09-23 05:05:00,57.0,53.8,29.96,WSW,255,0.0,0.0,89,0.00,,,0.00,meteobridge,2013-09-23 09:05:00,
2013-09-23 05:10:00,56.8,53.6,29.96,WSW,256,0.0,0.0,89,0.00,,,0.00,meteobridge,2013-09-23 09:10:00,
2013-09-23 05:15:00,56.8,53.6,29.96,WSW,256,0.0,0.0,89,0.00,,,0.00,meteobridge,2013-09-23 09:15:00,
2013-09-23 05:20:00,56.7,53.8,29.96,WSW,255,0.0,0.0,90,0.00,,,0.00,meteobridge,2013-09-23 09:20:00,
2013-09-23 05:25:00,56.3,53.4,29.96,WSW,256,0.0,0.0,90,0.00,,,0.00,meteobridge,2013-09-23 09:25:00,
2013-09-23 05:31:00,56.1,53.2,29.96,WSW,256,0.0,0.0,90,0.00,,,0.00,meteobridge,2013-09-23 09:31:00,
2013-09-23 05:36:00,55.9,53.4,29.97,WSW,256,0.0,0.0,91,0.00,,,0.00,meteobridge,2013-09-23 09:36:00,
2013-09-23 05:41:00,55.9,53.4,29.97,WSW,256,0.0,0.0,91,0.00,,,0.00,meteobridge,2013-09-23 09:41:00,
2013-09-23 05:46:00,55.8,53.2,29.97,WSW,255,0.0,0.0,91,0.00,,,0.00,meteobridge,2013-09-23 09:46:00,
2013-09-23 05:51:00,55.6,53.1,29.97,WSW,255,0.0,0.0,91,0.00,,,0.00,meteobridge,2013-09-23 09:51:00,
2013-09-23 05:56:00,55.2,52.7,29.97,WSW,256,0.0,0.0,91,0.00,,,0.00,meteobridge,2013-09-23 09:56:00,
2013-09-23 06:01:00,55.0,52.5,29.98,WSW,256,0.0,0.0,91,0.00,,,0.00,meteobridge,2013-09-23 10:01:00,
2013-09-23 06:06:00,55.0,52.7,29.98,WSW,256,0.0,0.0,92,0.00,,,0.00,meteobridge,2013-09-23 10:06:00,
2013-09-23 06:11:00,54.9,52.5,29.98,WSW,256,0.0,0.0,92,0.00,,,0.00,meteobridge,2013-09-23 10:11:00,
2013-09-23 06:17:00,54.9,52.5,29.98,WSW,256,0.0,0.0,92,0.00,,,0.00,meteobridge,2013-09-23 10:17:00,
2013-09-23 06:22:00,54.7,52.3,29.98,WSW,256,0.0,0.0,92,0.00,,,0.00,meteobridge,2013-09-23 10:22:00,
2013-09-23 06:27:00,54.3,52.0,29.98,WSW,256,0.0,0.0,92,0.00,,,0.00,meteobridge,2013-09-23 10:27:00,
2013-09-23 06:32:00,54.3,52.3,29.99,WSW,256,0.0,0.0,93,0.00,,,0.00,meteobridge,2013-09-23 10:32:00,
2013-09-23 06:37:00,54.1,52.2,29.99,WSW,256,0.0,0.0,93,0.00,,,0.00,meteobridge,2013-09-23 10:37:00,
2013-09-23 06:42:00,54.1,52.2,29.99,WSW,256,0.0,0.0,93,0.00,,,0.00,meteobridge,2013-09-23 10:42:00,
2013-09-23 06:47:00,54.1,52.2,30.00,WSW,256,0.0,0.0,93,0.00,,,0.00,meteobridge,2013-09-23 10:47:00,
2013-09-23 06:52:00,54.0,52.0,30.00,WSW,256,0.0,0.0,93,0.00,,,0.00,meteobridge,2013-09-23 10:52:00,
2013-09-23 06:57:00,54.0,52.0,30.01,WSW,256,0.0,0.0,93,0.00,,,0.00,meteobridge,2013-09-23 10:57:00,
2013-09-23 07:03:00,53.8,51.8,30.01,WSW,256,0.0,0.0,93,0.00,,,0.00,meteobridge,2013-09-23 11:03:00,
2013-09-23 07:08:00,53.6,51.6,30.01,WSW,256,0.0,0.0,93,0.00,,,0.00,meteobridge,2013-09-23 11:08:00,
2013-09-23 07:13:00,53.6,51.6,30.01,WSW,256,0.0,0.0,93,0.00,,,0.00,meteobridge,2013-09-23 11:13:00,
2013-09-23 07:18:00,53.6,51.6,30.01,WSW,255,0.0,0.0,93,0.00,,,0.00,meteobridge,2013-09-23 11:18:00,
2013-09-23 07:23:00,53.8,52.2,30.01,WSW,256,0.0,0.0,94,0.00,,,0.00,meteobridge,2013-09-23 11:23:00,
2013-09-23 07:28:00,54.0,52.3,30.02,WSW,256,0.0,0.0,94,0.00,,,0.00,meteobridge,2013-09-23 11:28:00,
2013-09-23 07:33:00,54.1,52.5,30.02,WSW,256,0.0,0.0,94,0.00,,,0.00,meteobridge,2013-09-23 11:33:00,
2013-09-23 07:39:00,54.3,52.3,30.02,WSW,255,0.0,0.0,93,0.00,,,0.00,meteobridge,2013-09-23 11:39:00,
2013-09-23 07:44:00,54.7,52.7,30.02,WSW,256,0.0,0.0,93,0.00,,,0.00,meteobridge,2013-09-23 11:44:00,
2013-09-23 07:49:00,54.9,52.5,30.02,WSW,256,0.0,0.0,92,0.00,,,0.00,meteobridge,2013-09-23 11:49:00,
2013-09-23 07:54:00,55.0,52.7,30.02,WSW,256,0.0,0.0,92,0.00,,,0.00,meteobridge,2013-09-23 11:54:00,
2013-09-23 07:59:00,55.4,52.9,30.02,WSW,255,0.0,0.0,91,0.00,,,0.00,meteobridge,2013-09-23 11:59:00,
2013-09-23 08:04:00,55.6,52.7,30.02,WSW,256,0.0,0.0,90,0.00,,,0.00,meteobridge,2013-09-23 12:04:00,
2013-09-23 08:09:00,55.8,52.9,30.02,WSW,256,0.0,0.0,90,0.00,,,0.00,meteobridge,2013-09-23 12:09:00,
2013-09-23 08:15:00,55.9,53.1,30.02,WSW,255,0.0,0.0,90,0.00,,,0.00,meteobridge,2013-09-23 12:15:00,
2013-09-23 08:20:00,55.9,53.1,30.02,WSW,256,0.0,0.0,90,0.00,,,0.00,meteobridge,2013-09-23 12:20:00,
2013-09-23 08:25:00,56.1,53.2,30.03,WSW,255,0.0,0.0,90,0.00,,,0.00,meteobridge,2013-09-23 12:25:00,
2013-09-23 08:30:00,56.3,53.4,30.03,WSW,255,0.0,0.0,90,0.00,,,0.00,meteobridge,2013-09-23 12:30:00,
2013-09-23 08:35:00,56.7,53.8,30.03,WSW,256,0.0,0.0,90,0.00,,,0.00,meteobridge,2013-09-23 12:35:00,
2013-09-23 08:40:00,57.0,53.4,30.03,WSW,255,0.0,0.0,88,0.00,,,0.00,meteobridge,2013-09-23 12:40:00,
2013-09-23 08:45:00,57.6,54.0,30.03,WSW,257,0.0,0.0,88,0.00,,,0.00,meteobridge,2013-09-23 12:45:00,
2013-09-23 08:50:00,57.9,54.1,30.03,WSW,257,0.0,0.0,87,0.00,,,0.00,meteobridge,2013-09-23 12:50:00,
2013-09-23 08:55:00,58.6,54.1,30.04,West,274,0.0,0.0,85,0.00,,,0.00,meteobridge,2013-09-23 12:55:00,
2013-09-23 09:00:00,59.2,55.0,30.04,West,274,0.0,0.0,86,0.00,,,0.00,meteobridge,2013-09-23 13:00:00,
2013-09-23 09:05:00,59.7,54.9,30.04,NNW,333,0.0,0.0,84,0.00,,,0.00,meteobridge,2013-09-23 13:05:00,
2013-09-23 09:10:00,60.1,54.9,30.04,NNW,333,0.0,0.0,83,0.00,,,0.00,meteobridge,2013-09-23 13:10:00,
2013-09-23 09:16:00,60.4,54.5,30.04,West,264,0.0,0.9,81,0.00,,,0.00,meteobridge,2013-09-23 13:16:00,
2013-09-23 09:21:00,61.0,54.5,30.04,WSW,246,0.0,0.0,79,0.00,,,0.00,meteobridge,2013-09-23 13:21:00,
2013-09-23 09:26:00,61.3,54.9,30.05,WSW,246,0.0,0.0,79,0.00,,,0.00,meteobridge,2013-09-23 13:26:00,
2013-09-23 09:31:00,61.7,55.0,30.05,WSW,253,0.0,0.0,79,0.00,,,0.00,meteobridge,2013-09-23 13:31:00,
2013-09-23 09:36:00,62.1,54.7,30.05,WSW,252,0.0,0.0,77,0.00,,,0.00,meteobridge,2013-09-23 13:36:00,
2013-09-23 09:41:00,62.4,54.7,30.05,NE,55,0.0,0.0,76,0.00,,,0.00,meteobridge,2013-09-23 13:41:00,
2013-09-23 09:46:00,62.8,55.0,30.05,West,263,0.0,0.0,76,0.00,,,0.00,meteobridge,2013-09-23 13:46:00,
2013-09-23 09:51:00,63.1,55.8,30.05,West,266,0.0,0.0,77,0.00,,,0.00,meteobridge,2013-09-23 13:51:00,
2013-09-23 09:56:00,63.3,55.2,30.05,West,264,0.0,0.0,75,0.00,,,0.00,meteobridge,2013-09-23 13:56:00,
2013-09-23 10:01:00,63.9,55.8,30.05,West,264,0.0,0.9,75,0.00,,,0.00,meteobridge,2013-09-23 14:01:00,
2013-09-23 10:06:00,64.0,54.5,30.05,WSW,255,0.0,0.0,71,0.00,,,0.00,meteobridge,2013-09-23 14:06:00,
2013-09-23 10:11:00,64.0,54.1,30.05,WSW,255,0.9,0.9,70,0.00,,,0.00,meteobridge,2013-09-23 14:11:00,
2013-09-23 10:16:00,64.6,55.0,30.05,ENE,69,0.0,0.9,71,0.00,,,0.00,meteobridge,2013-09-23 14:16:00,
2013-09-23 10:21:00,64.6,53.8,30.05,WSW,244,0.0,0.9,68,0.00,,,0.00,meteobridge,2013-09-23 14:21:00,
2013-09-23 10:27:00,64.8,54.7,30.05,WSW,244,0.0,0.0,70,0.00,,,0.00,meteobridge,2013-09-23 14:27:00,
2013-09-23 10:32:00,64.9,54.1,30.06,West,280,0.0,0.9,68,0.00,,,0.00,meteobridge,2013-09-23 14:32:00,
2013-09-23 10:37:00,65.5,54.3,30.05,NW,325,0.0,0.0,67,0.00,,,0.00,meteobridge,2013-09-23 14:37:00,
2013-09-23 10:42:00,65.7,54.3,30.06,NNW,341,0.0,0.9,67,0.00,,,0.00,meteobridge,2013-09-23 14:42:00,
2013-09-23 10:47:00,66.0,54.3,30.06,NW,325,0.0,0.0,66,0.00,,,0.00,meteobridge,2013-09-23 14:47:00,
2013-09-23 10:52:00,66.4,54.3,30.06,West,263,0.9,0.9,65,0.00,,,0.00,meteobridge,2013-09-23 14:52:00,
2013-09-23 10:57:00,66.6,54.9,30.06,NW,325,0.9,0.9,66,0.00,,,0.00,meteobridge,2013-09-23 14:57:00,
2013-09-23 11:02:00,66.7,54.7,30.06,South,184,0.0,0.9,65,0.00,,,0.00,meteobridge,2013-09-23 15:02:00,
2013-09-23 11:07:00,66.9,54.0,30.06,NW,312,0.0,0.9,63,0.00,,,0.00,meteobridge,2013-09-23 15:07:00,
2013-09-23 11:12:00,67.5,54.0,30.06,WNW,300,0.9,0.9,62,0.00,,,0.00,meteobridge,2013-09-23 15:12:00,
2013-09-23 11:17:00,67.5,54.5,30.05,WSW,245,0.0,2.0,63,0.00,,,0.00,meteobridge,2013-09-23 15:17:00,
2013-09-23 11:22:00,67.6,55.0,30.05,WSW,245,0.0,0.0,64,0.00,,,0.00,meteobridge,2013-09-23 15:22:00,
2013-09-23 11:27:00,67.6,53.8,30.05,WNW,288,0.9,0.9,61,0.00,,,0.00,meteobridge,2013-09-23 15:27:00,
2013-09-23 11:32:00,67.8,54.3,30.05,WNW,288,0.0,0.0,62,0.00,,,0.00,meteobridge,2013-09-23 15:32:00,
2013-09-23 11:38:00,68.0,55.4,30.06,WNW,288,0.0,0.9,64,0.00,,,0.00,meteobridge,2013-09-23 15:38:00,
2013-09-23 11:43:00,68.4,54.9,30.06,ENE,61,0.0,0.9,62,0.00,,,0.00,meteobridge,2013-09-23 15:43:00,
2013-09-23 11:48:00,68.5,55.0,30.05,West,274,0.0,0.9,62,0.00,,,0.00,meteobridge,2013-09-23 15:48:00,
2013-09-23 11:53:00,68.7,55.6,30.05,ENE,64,0.0,0.0,63,0.00,,,0.00,meteobridge,2013-09-23 15:53:00,
2013-09-23 11:58:00,68.9,54.5,30.05,West,268,0.9,0.9,60,0.00,,,0.00,meteobridge,2013-09-23 15:58:00,
2013-09-23 12:03:00,69.1,54.7,30.05,West,274,0.0,0.9,60,0.00,,,0.00,meteobridge,2013-09-23 16:03:00,
2013-09-23 12:08:00,69.1,55.0,30.05,ENE,65,0.0,2.0,61,0.00,,,0.00,meteobridge,2013-09-23 16:08:00,
2013-09-23 12:14:00,69.4,55.4,30.05,ESE,103,0.9,0.9,61,0.00,,,0.00,meteobridge,2013-09-23 16:14:00,
2013-09-23 12:19:00,69.4,55.4,30.05,West,276,0.0,0.9,61,0.00,,,0.00,meteobridge,2013-09-23 16:19:00,
2013-09-23 12:24:00,69.6,54.7,30.05,West,270,0.0,0.9,59,0.00,,,0.00,meteobridge,2013-09-23 16:24:00,
2013-09-23 12:29:00,70.0,55.0,30.04,SW,235,0.0,0.9,59,0.00,,,0.00,meteobridge,2013-09-23 16:29:00,
2013-09-23 12:34:00,70.2,56.1,30.04,NNE,25,0.0,0.9,61,0.00,,,0.00,meteobridge,2013-09-23 16:34:00,
2013-09-23 12:39:00,70.2,55.2,30.04,North,349,0.0,0.9,59,0.00,,,0.00,meteobridge,2013-09-23 16:39:00,
2013-09-23 12:44:00,70.3,55.4,30.04,WSW,245,0.9,0.9,59,0.00,,,0.00,meteobridge,2013-09-23 16:44:00,
2013-09-23 12:49:00,70.5,55.9,30.04,West,259,0.9,0.9,60,0.00,,,0.00,meteobridge,2013-09-23 16:49:00,
2013-09-23 12:54:00,70.9,55.8,30.04,West,259,0.0,0.9,59,0.00,,,0.00,meteobridge,2013-09-23 16:54:00,
2013-09-23 12:59:00,71.2,56.7,30.04,WSW,251,0.0,0.9,60,0.00,,,0.00,meteobridge,2013-09-23 16:59:00,
2013-09-23 13:05:00,71.4,56.8,30.04,East,81,0.0,0.9,60,0.00,,,0.00,meteobridge,2013-09-23 17:05:00,
2013-09-23 13:10:00,71.6,57.0,30.04,NE,51,0.0,0.0,60,0.00,,,0.00,meteobridge,2013-09-23 17:10:00,
2013-09-23 13:15:00,71.4,56.3,30.04,NW,315,0.0,0.9,59,0.00,,,0.00,meteobridge,2013-09-23 17:15:00,
2013-09-23 13:20:00,71.4,56.3,30.04,NE,55,0.9,2.0,59,0.00,,,0.00,meteobridge,2013-09-23 17:20:00,
2013-09-23 13:25:00,71.6,55.0,30.03,WNW,285,0.0,0.9,56,0.00,,,0.00,meteobridge,2013-09-23 17:25:00,
2013-09-23 13:30:00,72.0,56.3,30.03,West,280,0.0,2.0,58,0.00,,,0.00,meteobridge,2013-09-23 17:30:00,
2013-09-23 13:35:00,72.1,57.0,30.03,North,8,0.0,0.0,59,0.00,,,0.00,meteobridge,2013-09-23 17:35:00,
2013-09-23 13:41:00,71.8,58.1,30.03,West,273,0.0,0.9,62,0.00,,,0.00,meteobridge,2013-09-23 17:41:00,
2013-09-23 13:46:00,71.6,56.5,30.03,WSW,257,0.0,0.0,59,0.00,,,0.00,meteobridge,2013-09-23 17:46:00,
2013-09-23 13:51:00,71.4,57.2,30.03,South,191,0.9,0.9,61,0.00,,,0.00,meteobridge,2013-09-23 17:51:00,
2013-09-23 13:56:00,71.2,57.6,30.03,WSW,241,0.9,2.0,62,0.00,,,0.00,meteobridge,2013-09-23 17:56:00,
2013-09-23 14:01:00,70.7,56.1,30.03,SW,236,0.0,0.9,60,0.00,,,0.00,meteobridge,2013-09-23 18:01:00,
2013-09-23 14:06:00,70.3,56.3,30.03,ENE,60,0.0,2.0,61,0.00,,,0.00,meteobridge,2013-09-23 18:06:00,
2013-09-23 14:11:00,70.3,57.2,30.03,ENE,60,0.0,0.0,63,0.00,,,0.00,meteobridge,2013-09-23 18:11:00,
2013-09-23 14:16:00,70.5,57.4,30.03,NW,318,0.0,0.0,63,0.00,,,0.00,meteobridge,2013-09-23 18:16:00,
2013-09-23 14:22:00,70.7,57.6,30.03,NW,318,0.0,0.0,63,0.00,,,0.00,meteobridge,2013-09-23 18:22:00,
2013-09-23 14:27:00,70.9,56.3,30.03,NW,318,0.0,0.0,60,0.00,,,0.00,meteobridge,2013-09-23 18:27:00,
2013-09-23 14:32:00,71.1,58.3,30.03,NW,317,0.0,0.0,64,0.00,,,0.00,meteobridge,2013-09-23 18:32:00,
2013-09-23 14:37:00,71.1,58.3,30.03,NW,317,0.0,0.0,64,0.00,,,0.00,meteobridge,2013-09-23 18:37:00,
2013-09-23 14:42:00,70.9,58.1,30.02,NW,319,0.0,0.0,64,0.00,,,0.00,meteobridge,2013-09-23 18:42:00,
2013-09-23 14:47:00,70.7,57.6,30.02,East,99,0.0,2.0,63,0.00,,,0.00,meteobridge,2013-09-23 18:47:00,
2013-09-23 14:52:00,70.7,57.6,30.02,East,100,0.0,0.0,63,0.00,,,0.00,meteobridge,2013-09-23 18:52:00,
2013-09-23 14:57:00,70.9,58.1,30.02,East,101,0.0,0.0,64,0.00,,,0.00,meteobridge,2013-09-23 18:57:00,
2013-09-23 15:02:00,71.1,57.4,30.02,East,100,0.0,0.0,62,0.00,,,0.00,meteobridge,2013-09-23 19:02:00,
2013-09-23 15:07:00,71.2,56.7,30.02,West,276,0.0,0.0,60,0.00,,,0.00,meteobridge,2013-09-23 19:07:00,
2013-09-23 15:12:00,71.2,56.7,30.02,NNE,27,0.0,0.0,60,0.00,,,0.00,meteobridge,2013-09-23 19:12:00,
2013-09-23 15:18:00,71.2,57.6,30.02,NNW,327,0.0,0.0,62,0.00,,,0.00,meteobridge,2013-09-23 19:18:00,
2013-09-23 15:23:00,71.2,57.9,30.02,NW,325,0.0,0.0,63,0.00,,,0.00,meteobridge,2013-09-23 19:23:00,
2013-09-23 15:28:00,71.1,57.4,30.02,NW,304,0.0,0.0,62,0.00,,,0.00,meteobridge,2013-09-23 19:28:00,
2013-09-23 15:33:00,71.1,58.6,30.02,NW,305,0.0,0.0,65,0.00,,,0.00,meteobridge,2013-09-23 19:33:00,
2013-09-23 15:38:00,70.9,57.2,30.01,WSW,250,0.0,0.0,62,0.00,,,0.00,meteobridge,2013-09-23 19:38:00,
2013-09-23 15:43:00,70.3,56.7,30.01,WSW,250,0.0,0.0,62,0.00,,,0.00,meteobridge,2013-09-23 19:43:00,
2013-09-23 15:48:00,70.2,56.1,30.01,WSW,252,0.0,0.0,61,0.00,,,0.00,meteobridge,2013-09-23 19:48:00,
2013-09-23 15:53:00,70.7,57.0,30.01,WSW,255,0.0,0.0,62,0.00,,,0.00,meteobridge,2013-09-23 19:53:00,
2013-09-23 15:58:00,71.1,57.4,30.01,WSW,255,0.0,0.0,62,0.00,,,0.00,meteobridge,2013-09-23 19:58:00,
2013-09-23 16:03:00,71.8,58.1,30.01,ENE,60,0.0,0.0,62,0.00,,,0.00,meteobridge,2013-09-23 20:03:00,
2013-09-23 16:08:00,71.8,58.1,30.01,NE,56,0.0,0.0,62,0.00,,,0.00,meteobridge,2013-09-23 20:08:00,
2013-09-23 16:13:00,71.1,57.7,30.01,NE,56,0.0,0.0,63,0.00,,,0.00,meteobridge,2013-09-23 20:13:00,
2013-09-23 16:18:00,70.7,57.9,30.01,ENE,57,0.0,0.0,64,0.00,,,0.00,meteobridge,2013-09-23 20:18:00,
2013-09-23 16:23:00,70.7,58.3,30.01,NE,56,0.0,0.0,65,0.00,,,0.00,meteobridge,2013-09-23 20:23:00,
2013-09-23 16:29:00,70.9,57.7,30.01,NW,307,0.0,0.0,63,0.00,,,0.00,meteobridge,2013-09-23 20:29:00,
2013-09-23 16:34:00,71.1,56.5,30.01,NW,306,0.0,0.0,60,0.00,,,0.00,meteobridge,2013-09-23 20:34:00,
2013-09-23 16:39:00,71.4,56.8,30.01,NW,308,0.0,0.0,60,0.00,,,0.00,meteobridge,2013-09-23 20:39:00,
2013-09-23 16:44:00,71.8,57.2,30.01,NW,308,0.0,0.0,60,0.00,,,0.00,meteobridge,2013-09-23 20:44:00,
2013-09-23 16:49:00,72.1,57.0,30.01,ENE,72,0.0,0.0,59,0.00,,,0.00,meteobridge,2013-09-23 20:49:00,
2013-09-23 16:55:00,72.3,56.7,30.01,NE,56,0.9,2.9,58,0.00,,,0.00,meteobridge,2013-09-23 20:55:00,
2013-09-23 17:00:00,72.3,57.2,30.01,ENE,63,0.0,0.9,59,0.00,,,0.00,meteobridge,2013-09-23 21:00:00,
2013-09-23 17:05:00,72.1,57.6,30.01,East,87,0.0,0.0,60,0.00,,,0.00,meteobridge,2013-09-23 21:05:00,
2013-09-23 17:10:00,71.8,56.1,30.01,NNW,342,0.0,0.0,58,0.00,,,0.00,meteobridge,2013-09-23 21:10:00,
2013-09-23 17:15:00,71.8,56.1,30.01,West,271,0.0,0.0,58,0.00,,,0.00,meteobridge,2013-09-23 21:15:00,
2013-09-23 17:20:00,71.6,56.5,30.01,West,273,0.0,0.0,59,0.00,,,0.00,meteobridge,2013-09-23 21:20:00,
2013-09-23 17:25:00,71.6,57.0,30.01,WNW,283,0.0,0.0,60,0.00,,,0.00,meteobridge,2013-09-23 21:25:00,
2013-09-23 17:31:00,71.4,56.8,30.01,WNW,283,0.0,0.0,60,0.00,,,0.00,meteobridge,2013-09-23 21:31:00,
2013-09-23 17:36:00,71.2,56.7,30.01,WNW,283,0.0,0.0,60,0.00,,,0.00,meteobridge,2013-09-23 21:36:00,
2013-09-23 17:41:00,71.1,57.4,30.01,WNW,283,0.0,0.0,62,0.00,,,0.00,meteobridge,2013-09-23 21:41:00,
2013-09-23 17:46:00,70.9,57.7,30.01,WNW,283,0.0,0.0,63,0.00,,,0.00,meteobridge,2013-09-23 21:46:00,
2013-09-23 17:51:00,70.7,56.1,30.01,WNW,283,0.0,0.0,60,0.00,,,0.00,meteobridge,2013-09-23 21:51:00,
2013-09-23 17:56:00,70.5,56.8,30.01,WNW,283,0.0,0.0,62,0.00,,,0.00,meteobridge,2013-09-23 21:56:00,
2013-09-23 18:01:00,70.3,56.7,30.01,WNW,283,0.0,0.0,62,0.00,,,0.00,meteobridge,2013-09-23 22:01:00,
2013-09-23 18:07:00,70.2,57.4,30.01,WNW,283,0.0,0.0,64,0.00,,,0.00,meteobridge,2013-09-23 22:07:00,
2013-09-23 18:12:00,69.8,57.6,30.01,WNW,283,0.0,0.0,65,0.00,,,0.00,meteobridge,2013-09-23 22:12:00,
2013-09-23 18:17:00,69.4,57.9,30.01,WNW,283,0.0,0.0,67,0.00,,,0.00,meteobridge,2013-09-23 22:17:00,
2013-09-23 18:22:00,69.1,57.2,30.01,WNW,283,0.0,0.0,66,0.00,,,0.00,meteobridge,2013-09-23 22:22:00,
2013-09-23 18:27:00,68.7,57.7,30.02,WNW,283,0.0,0.0,68,0.00,,,0.00,meteobridge,2013-09-23 22:27:00,
2013-09-23 18:32:00,68.2,58.1,30.02,WNW,283,0.0,0.0,70,0.00,,,0.00,meteobridge,2013-09-23 22:32:00,
2013-09-23 18:38:00,67.5,57.4,30.02,WNW,283,0.0,0.0,70,0.00,,,0.00,meteobridge,2013-09-23 22:38:00,
2013-09-23 18:43:00,67.1,57.7,30.02,WNW,283,0.0,0.0,72,0.00,,,0.00,meteobridge,2013-09-23 22:43:00,
2013-09-23 18:48:00,66.7,57.7,30.02,WNW,283,0.0,0.0,73,0.00,,,0.00,meteobridge,2013-09-23 22:48:00,
2013-09-23 18:54:00,66.4,57.9,30.02,WNW,283,0.0,0.0,74,0.00,,,0.00,meteobridge,2013-09-23 22:54:00,
2013-09-23 18:59:00,66.2,58.8,30.02,WNW,283,0.0,0.0,77,0.00,,,0.00,meteobridge,2013-09-23 22:59:00,
2013-09-23 19:04:00,65.8,59.2,30.02,WNW,283,0.0,0.0,79,0.00,,,0.00,meteobridge,2013-09-23 23:04:00,
2013-09-23 19:09:00,65.7,59.7,30.02,WNW,283,0.0,0.0,81,0.00,,,0.00,meteobridge,2013-09-23 23:09:00,
2013-09-23 19:14:00,65.5,59.9,30.02,WNW,283,0.0,0.0,82,0.00,,,0.00,meteobridge,2013-09-23 23:14:00,
2013-09-23 19:19:00,65.1,59.9,30.03,WNW,283,0.0,0.0,83,0.00,,,0.00,meteobridge,2013-09-23 23:19:00,
2013-09-23 19:25:00,64.8,59.5,30.03,WNW,283,0.0,0.0,83,0.00,,,0.00,meteobridge,2013-09-23 23:25:00,
2013-09-23 19:31:00,64.2,59.4,30.03,WNW,283,0.0,0.0,84,0.00,,,0.00,meteobridge,2013-09-23 23:31:00,
2013-09-23 19:36:00,63.7,59.0,30.03,WNW,283,0.0,0.0,85,0.00,,,0.00,meteobridge,2013-09-23 23:36:00,
2013-09-23 19:41:00,63.3,59.0,30.03,WNW,283,0.0,0.0,86,0.00,,,0.00,meteobridge,2013-09-23 23:41:00,
2013-09-23 19:46:00,63.1,59.2,30.03,WNW,282,0.0,0.0,87,0.00,,,0.00,meteobridge,2013-09-23 23:46:00,
2013-09-23 19:52:00,62.6,59.0,30.02,WNW,283,0.0,0.0,88,0.00,,,0.00,meteobridge,2013-09-23 23:52:00,
2013-09-23 19:57:00,62.2,58.6,30.02,WNW,283,0.0,0.0,88,0.00,,,0.00,meteobridge,2013-09-23 23:57:00,
2013-09-23 20:02:00,62.2,59.0,30.03,WNW,283,0.0,0.0,89,0.00,,,0.00,meteobridge,2013-09-24 00:02:00,
2013-09-23 20:07:00,61.9,58.6,30.03,WNW,283,0.0,0.0,89,0.00,,,0.00,meteobridge,2013-09-24 00:07:00,
2013-09-23 20:13:00,61.5,58.3,30.03,WNW,283,0.0,0.0,89,0.00,,,0.00,meteobridge,2013-09-24 00:13:00,
2013-09-23 20:18:00,61.3,58.1,30.03,WNW,282,0.0,0.0,89,0.00,,,0.00,meteobridge,2013-09-24 00:18:00,
2013-09-23 20:23:00,61.0,57.7,30.04,WNW,283,0.0,0.0,89,0.00,,,0.00,meteobridge,2013-09-24 00:23:00,
2013-09-23 20:28:00,60.6,57.7,30.03,WNW,283,0.0,0.0,90,0.00,,,0.00,meteobridge,2013-09-24 00:28:00,
2013-09-23 20:33:00,60.4,57.6,30.03,WNW,283,0.0,0.0,90,0.00,,,0.00,meteobridge,2013-09-24 00:33:00,
2013-09-23 20:39:00,60.3,57.6,30.04,WNW,282,0.0,0.0,91,0.00,,,0.00,meteobridge,2013-09-24 00:39:00,
2013-09-23 20:44:00,60.1,57.4,30.04,WNW,282,0.0,0.0,91,0.00,,,0.00,meteobridge,2013-09-24 00:44:00,
2013-09-23 20:49:00,60.1,57.4,30.04,WNW,283,0.0,0.0,91,0.00,,,0.00,meteobridge,2013-09-24 00:49:00,
2013-09-23 20:55:00,59.9,57.2,30.04,WNW,283,0.0,0.0,91,0.00,,,0.00,meteobridge,2013-09-24 00:55:00,
2013-09-23 21:00:00,59.9,57.6,30.04,WNW,283,0.0,0.0,92,0.00,,,0.00,meteobridge,2013-09-24 01:00:00,
2013-09-23 21:05:00,59.7,57.4,30.04,WNW,283,0.0,0.0,92,0.00,,,0.00,meteobridge,2013-09-24 01:05:00,
2013-09-23 21:10:00,59.5,57.2,30.04,WNW,282,0.0,0.0,92,0.00,,,0.00,meteobridge,2013-09-24 01:10:00,
2013-09-23 21:16:00,59.4,57.0,30.04,WNW,283,0.0,0.0,92,0.00,,,0.00,meteobridge,2013-09-24 01:16:00,
2013-09-23 21:21:00,59.2,56.8,30.04,WNW,283,0.0,0.0,92,0.00,,,0.00,meteobridge,2013-09-24 01:21:00,
2013-09-23 21:26:00,59.0,56.7,30.04,WNW,283,0.0,0.0,92,0.00,,,0.00,meteobridge,2013-09-24 01:26:00,
2013-09-23 21:32:00,58.8,56.5,30.04,WNW,283,0.0,0.0,92,0.00,,,0.00,meteobridge,2013-09-24 01:32:00,
2013-09-23 21:37:00,58.6,56.3,30.04,WNW,283,0.0,0.0,92,0.00,,,0.00,meteobridge,2013-09-24 01:37:00,
2013-09-23 21:42:00,58.5,56.1,30.04,WNW,283,0.0,0.0,92,0.00,,,0.00,meteobridge,2013-09-24 01:42:00,
2013-09-23 21:47:00,58.3,55.9,30.04,WNW,283,0.0,0.0,92,0.00,,,0.00,meteobridge,2013-09-24 01:47:00,
2013-09-23 21:53:00,58.1,56.1,30.04,WNW,283,0.0,0.0,93,0.00,,,0.00,meteobridge,2013-09-24 01:53:00,
2013-09-23 21:58:00,57.9,55.9,30.05,WNW,283,0.0,0.0,93,0.00,,,0.00,meteobridge,2013-09-24 01:58:00,
2013-09-23 22:03:00,57.9,55.9,30.05,WNW,283,0.0,0.0,93,0.00,,,0.00,meteobridge,2013-09-24 02:03:00,
2013-09-23 22:08:00,57.7,55.8,30.05,WNW,283,0.0,0.0,93,0.00,,,0.00,meteobridge,2013-09-24 02:08:00,
2013-09-23 22:14:00,57.7,55.8,30.05,WNW,283,0.0,0.0,93,0.00,,,0.00,meteobridge,2013-09-24 02:14:00,
2013-09-23 22:19:00,57.6,55.6,30.05,WNW,283,0.0,0.0,93,0.00,,,0.00,meteobridge,2013-09-24 02:19:00,
2013-09-23 22:24:00,57.4,55.4,30.05,WNW,283,0.0,0.0,93,0.00,,,0.00,meteobridge,2013-09-24 02:24:00,
2013-09-23 22:29:00,57.2,55.2,30.06,WNW,283,0.0,0.0,93,0.00,,,0.00,meteobridge,2013-09-24 02:29:00,
2013-09-23 22:35:00,57.2,55.2,30.06,WNW,283,0.0,0.0,93,0.00,,,0.00,meteobridge,2013-09-24 02:35:00,
2013-09-23 22:40:00,57.0,55.0,30.06,WNW,282,0.0,0.0,93,0.00,,,0.00,meteobridge,2013-09-24 02:40:00,
2013-09-23 22:45:00,57.0,55.2,30.06,WNW,283,0.0,0.0,94,0.00,,,0.00,meteobridge,2013-09-24 02:45:00,
2013-09-23 22:50:00,56.8,55.2,30.06,WNW,282,0.0,0.0,94,0.00,,,0.00,meteobridge,2013-09-24 02:50:00,
2013-09-23 22:56:00,56.8,55.2,30.06,WNW,283,0.0,0.0,94,0.00,,,0.00,meteobridge,2013-09-24 02:56:00,
2013-09-23 23:01:00,56.7,55.0,30.06,WNW,283,0.0,0.0,94,0.00,,,0.00,meteobridge,2013-09-24 03:01:00,
2013-09-23 23:06:00,56.7,55.0,30.06,WNW,283,0.0,0.0,94,0.00,,,0.00,meteobridge,2013-09-24 03:06:00,
2013-09-23 23:11:00,56.7,55.0,30.07,WNW,282,0.0,0.0,94,0.00,,,0.00,meteobridge,2013-09-24 03:11:00,
2013-09-23 23:16:00,56.5,54.9,30.07,WNW,283,0.0,0.0,94,0.00,,,0.00,meteobridge,2013-09-24 03:16:00,
2013-09-23 23:21:00,56.5,54.9,30.07,WNW,283,0.0,0.0,94,0.00,,,0.00,meteobridge,2013-09-24 03:21:00,
2013-09-23 23:26:00,56.5,54.9,30.07,WNW,283,0.0,0.0,94,0.00,,,0.00,meteobridge,2013-09-24 03:26:00,
2013-09-23 23:31:00,56.5,54.9,30.07,WNW,283,0.0,0.0,94,0.00,,,0.00,meteobridge,2013-09-24 03:31:00,
2013-09-23 23:36:00,56.3,54.7,30.06,WNW,283,0.0,0.0,94,0.00,,,0.00,meteobridge,2013-09-24 03:36:00,
2013-09-23 23:42:00,56.1,54.5,30.06,WNW,283,0.0,0.0,94,0.00,,,0.00,meteobridge,2013-09-24 03:42:00,
2013-09-23 23:47:00,56.1,54.5,30.07,WNW,283,0.0,0.0,94,0.00,,,0.00,meteobridge,2013-09-24 03:47:00,
2013-09-23 23:52:00,56.1,54.5,30.07,WNW,283,0.0,0.0,94,0.00,,,0.00,meteobridge,2013-09-24 03:52:00,
2013-09-23 23:57:00,55.9,54.3,30.07,WNW,283,0.0,0.0,94,0.00,,,0.00,meteobridge,2013-09-24 03:57:00,